Time;durP1;ratioP1;P1;durP2;ratioP2;P2;SDS_P1;SDS_P2;PMS_P1;PMS_P2;Temp;Humidity;BMP_temperature;BMP_pressure;BME280_temperature;BME280_humidity;BME280_pressure;Samples;Min_cycle;Max_cycle;Signal;HPM_P1;HPM_P2
2024/04/05 00:00:14;;;;;;;;;;;22.10;46.50;;;;;;3053330;19;4724;-26
2024/04/05 00:01:15;;;;;;;;;;;22.10;46.60;;;;;;3053201;19;4665;-23
2024/04/05 00:02:15;;;;;;;;;;;22.10;46.60;;;;;;3032955;19;4218;-23
2024/04/05 00:03:17;;;;;;;;;;;22.10;46.70;;;;;;3052698;19;4668;-24
2024/04/05 00:04:17;;;;;;;;;;;22.10;46.60;;;;;;3052374;19;4699;-24
2024/04/05 00:05:18;;;;;;;;;;;22.10;46.60;;;;;;3030992;19;4882;-23
2024/04/05 00:06:19;;;;;;;;;;;22.10;46.60;;;;;;3053204;19;4763;-25
2024/04/05 00:07:19;;;;;;;;;;;22.10;46.70;;;;;;3031089;19;4674;-23
2024/04/05 00:08:24;;;;;;;;;;;22.10;46.60;;;;;;3052610;19;4707;-25
2024/04/05 00:09:26;;;;;;;;;;;22.10;46.70;;;;;;3052644;19;4760;-25
2024/04/05 00:10:26;;;;;;;;;;;22.10;46.80;;;;;;3032872;19;4751;-24
2024/04/05 00:11:27;;;;;;;;;;;22.10;46.70;;;;;;3053917;19;4719;-25
2024/04/05 00:12:27;;;;;;;;;;;22.10;46.70;;;;;;3047755;19;4733;-23
2024/04/05 00:13:28;;;;;;;;;;;22.10;46.70;;;;;;3044785;19;4725;-23
2024/04/05 00:14:29;;;;;;;;;;;22.00;46.60;;;;;;3053789;19;4826;-24
2024/04/05 00:15:30;;;;;;;;;;;22.10;46.70;;;;;;3031814;19;4839;-23
2024/04/05 00:16:30;;;;;;;;;;;22.00;46.80;;;;;;3053363;19;4655;-23
2024/04/05 00:17:31;;;;;;;;;;;22.00;46.70;;;;;;3053778;19;4678;-24
2024/04/05 00:18:34;;;;;;;;;;;22.10;46.80;;;;;;3031328;19;4627;-24
2024/04/05 00:19:35;;;;;;;;;;;22.00;47.30;;;;;;3053831;19;4658;-25
2024/04/05 00:20:36;;;;;;;;;;;22.00;46.70;;;;;;3032588;19;4652;-35
2024/04/05 00:21:37;;;;;;;;;;;22.00;46.70;;;;;;3053768;19;4638;-32
2024/04/05 00:22:37;;;;;;;;;;;22.00;46.70;;;;;;3053614;19;4609;-31
2024/04/05 00:23:38;;;;;;;;;;;22.00;46.80;;;;;;3030070;19;4651;-35
2024/04/05 00:24:39;;;;;;;;;;;22.00;46.80;;;;;;3053794;19;4623;-29
2024/04/05 00:25:42;;;;;;;;;;;22.00;46.80;;;;;;3053614;19;4660;-33
2024/04/05 00:26:43;;;;;;;;;;;22.00;46.80;;;;;;3031682;19;4536;-32
2024/04/05 00:27:43;;;;;;;;;;;22.00;46.80;;;;;;3052174;19;4612;-31
2024/04/05 00:28:44;;;;;;;;;;;22.00;46.80;;;;;;3031872;19;4701;-28
2024/04/05 00:29:45;;;;;;;;;;;22.00;46.80;;;;;;3052506;19;4691;-31
2024/04/05 00:30:45;;;;;;;;;;;22.00;46.90;;;;;;3053391;19;4635;-28
2024/04/05 00:31:46;;;;;;;;;;;22.00;46.80;;;;;;3031306;19;4642;-31
2024/04/05 00:32:46;;;;;;;;;;;22.00;46.80;;;;;;3053418;19;4606;-29
2024/04/05 00:33:47;;;;;;;;;;;22.00;46.90;;;;;;3049422;19;4651;-34
2024/04/05 00:34:48;;;;;;;;;;;22.00;46.90;;;;;;3042111;19;4691;-30
2024/04/05 00:35:53;;;;;;;;;;;22.00;46.90;;;;;;3053463;19;4635;-34
2024/04/05 00:36:53;;;;;;;;;;;22.00;46.90;;;;;;3031654;19;4675;-38
2024/04/05 00:37:54;;;;;;;;;;;21.90;46.90;;;;;;3052930;19;4667;-31
2024/04/05 00:38:55;;;;;;;;;;;22.00;47.00;;;;;;3053091;19;4582;-33
2024/04/05 00:39:55;;;;;;;;;;;22.00;47.00;;;;;;3030742;19;4682;-31
2024/04/05 00:40:56;;;;;;;;;;;22.00;47.10;;;;;;3053178;19;4821;-30
2024/04/05 00:41:57;;;;;;;;;;;22.00;47.10;;;;;;3030587;19;4786;-31
2024/04/05 00:43:02;;;;;;;;;;;22.00;47.10;;;;;;3052928;19;4613;-34
2024/04/05 00:44:04;;;;;;;;;;;22.00;47.10;;;;;;3053055;19;4654;-32
2024/04/05 00:45:05;;;;;;;;;;;21.90;47.10;;;;;;3031550;19;4594;-30
2024/04/05 00:46:05;;;;;;;;;;;21.90;47.20;;;;;;3052977;19;4625;-30
2024/04/05 00:47:06;;;;;;;;;;;21.90;47.10;;;;;;3052739;19;4610;-29
2024/04/05 00:48:07;;;;;;;;;;;21.90;47.20;;;;;;3029204;19;4639;-32
2024/04/05 00:49:08;;;;;;;;;;;21.90;47.20;;;;;;3052548;19;4681;-34
2024/04/05 00:50:09;;;;;;;;;;;21.90;47.20;;;;;;3031767;19;4531;-31
2024/04/05 00:51:10;;;;;;;;;;;21.90;47.20;;;;;;3052202;19;4785;-32
2024/04/05 00:52:10;;;;;;;;;;;21.90;47.20;;;;;;3050788;19;4680;-31
2024/04/05 00:53:13;;;;;;;;;;;21.90;47.20;;;;;;3031199;19;4604;-32
2024/04/05 00:54:14;;;;;;;;;;;21.90;47.40;;;;;;3051858;19;4652;-33
2024/04/05 00:55:14;;;;;;;;;;;21.90;47.20;;;;;;3030069;19;5253;-30
2024/04/05 00:56:15;;;;;;;;;;;21.80;47.20;;;;;;3052137;19;4686;-32
2024/04/05 00:57:15;;;;;;;;;;;22.00;47.30;;;;;;3052074;19;4684;-31
2024/04/05 00:58:16;;;;;;;;;;;21.90;47.30;;;;;;3031171;19;4518;-30
2024/04/05 00:59:17;;;;;;;;;;;21.90;47.30;;;;;;3052431;19;4958;-31
2024/04/05 01:00:18;;;;;;;;;;;21.80;47.30;;;;;;3052210;19;4672;-29
2024/04/05 01:01:19;;;;;;;;;;;21.80;47.40;;;;;;3031619;19;4561;-29
2024/04/05 01:02:19;;;;;;;;;;;21.80;47.40;;;;;;3052761;19;4675;-31
2024/04/05 01:03:20;;;;;;;;;;;21.90;47.40;;;;;;3030446;19;4696;-31
2024/04/05 01:04:20;;;;;;;;;;;21.90;47.50;;;;;;3052327;19;4850;-30
2024/04/05 01:05:21;;;;;;;;;;;21.80;47.50;;;;;;3052611;19;4862;-33
2024/04/05 01:06:22;;;;;;;;;;;21.80;47.50;;;;;;3031104;19;4552;-32
2024/04/05 01:07:22;;;;;;;;;;;21.80;47.50;;;;;;3051414;19;4686;-33
2024/04/05 01:08:23;;;;;;;;;;;21.80;47.50;;;;;;3053173;19;4855;-31
2024/04/05 01:09:24;;;;;;;;;;;21.80;47.60;;;;;;3031084;19;4675;-32
2024/04/05 01:10:25;;;;;;;;;;;21.80;47.70;;;;;;3053067;19;4697;-34
2024/04/05 01:11:26;;;;;;;;;;;21.80;47.60;;;;;;3030488;19;4726;-35
2024/04/05 01:12:26;;;;;;;;;;;21.80;47.60;;;;;;3052895;19;4661;-31
2024/04/05 01:13:27;;;;;;;;;;;21.80;47.70;;;;;;3052762;19;4658;-30
2024/04/05 01:14:28;;;;;;;;;;;21.80;47.80;;;;;;3031151;19;5081;-30
2024/04/05 01:15:28;;;;;;;;;;;21.80;47.70;;;;;;3052725;19;4698;-29
2024/04/05 01:16:29;;;;;;;;;;;21.80;47.70;;;;;;3030286;19;4665;-31
2024/04/05 01:17:30;;;;;;;;;;;21.80;47.80;;;;;;3052623;19;4647;-33
2024/04/05 01:18:30;;;;;;;;;;;21.80;47.80;;;;;;3052852;19;4684;-32
2024/04/05 01:19:31;;;;;;;;;;;21.70;47.70;;;;;;3031144;19;4699;-32
2024/04/05 01:20:32;;;;;;;;;;;21.70;47.80;;;;;;3052448;19;4749;-30
2024/04/05 01:21:33;;;;;;;;;;;21.70;47.80;;;;;;3052424;19;4712;-24
2024/04/05 01:22:40;;;;;;;;;;;21.80;47.90;;;;;;3030388;19;4496;-23
2024/04/05 01:23:44;;;;;;;;;;;21.80;48.00;;;;;;3052697;19;5320;-24
2024/04/05 01:24:44;;;;;;;;;;;21.70;47.90;;;;;;3031531;19;4698;-25
2024/04/05 01:25:45;;;;;;;;;;;21.80;47.90;;;;;;3052318;19;4721;-23
2024/04/05 01:26:45;;;;;;;;;;;21.70;47.90;;;;;;3052942;19;5252;-24
2024/04/05 01:27:46;;;;;;;;;;;21.70;48.00;;;;;;3030803;19;4641;-25
2024/04/05 01:28:47;;;;;;;;;;;21.70;48.00;;;;;;3052409;19;4673;-25
2024/04/05 01:29:47;;;;;;;;;;;21.70;48.00;;;;;;3046184;19;4615;-24
2024/04/05 01:30:48;;;;;;;;;;;21.70;48.10;;;;;;3044876;19;4705;-24
2024/04/05 01:31:49;;;;;;;;;;;21.70;48.10;;;;;;3052458;19;4667;-26
2024/04/05 01:32:53;;;;;;;;;;;21.70;48.20;;;;;;3031225;19;4601;-25
2024/04/05 01:33:55;;;;;;;;;;;21.70;48.10;;;;;;3051952;19;4841;-23
2024/04/05 01:34:56;;;;;;;;;;;21.70;48.20;;;;;;3052399;19;4667;-23
2024/04/05 01:35:56;;;;;;;;;;;21.70;48.20;;;;;;3031071;19;4608;-23
2024/04/05 01:36:58;;;;;;;;;;;21.70;48.20;;;;;;3052369;19;4677;-24
2024/04/05 01:37:58;;;;;;;;;;;21.70;48.20;;;;;;3031600;19;4726;-23
2024/04/05 01:38:59;;;;;;;;;;;21.70;48.20;;;;;;3051863;19;4626;-24
2024/04/05 01:39:59;;;;;;;;;;;21.70;48.20;;;;;;3052609;19;4597;-25
2024/04/05 01:41:00;;;;;;;;;;;21.70;48.30;;;;;;3030918;19;4561;-24
2024/04/05 01:42:01;;;;;;;;;;;21.70;48.30;;;;;;3050740;19;4704;-26
2024/04/05 01:43:01;;;;;;;;;;;21.70;48.40;;;;;;3052077;19;4624;-26
2024/04/05 01:44:03;;;;;;;;;;;21.70;48.30;;;;;;3029569;19;4644;-24
2024/04/05 01:45:05;;;;;;;;;;;21.70;48.40;;;;;;3052164;19;4655;-24
2024/04/05 01:46:06;;;;;;;;;;;21.70;48.50;;;;;;3030787;19;4591;-26
2024/04/05 01:47:08;;;;;;;;;;;21.70;48.40;;;;;;3050665;19;4661;-24
2024/04/05 01:48:08;;;;;;;;;;;21.60;48.40;;;;;;3051265;19;4717;-24
2024/04/05 01:49:10;;;;;;;;;;;21.70;48.40;;;;;;3028138;19;4579;-23
2024/04/05 01:50:16;;;;;;;;;;;21.60;48.50;;;;;;3050674;19;4777;-24
2024/04/05 01:51:18;;;;;;;;;;;21.70;49.20;;;;;;3029079;19;4682;-23
2024/04/05 01:52:18;;;;;;;;;;;21.60;48.50;;;;;;3051516;19;4665;-25
2024/04/05 01:53:19;;;;;;;;;;;21.60;48.50;;;;;;3052017;19;4748;-24
2024/04/05 01:54:21;;;;;;;;;;;21.60;48.50;;;;;;3030615;19;4536;-25
2024/04/05 01:55:21;;;;;;;;;;;21.60;48.60;;;;;;3052550;19;4844;-24
2024/04/05 01:56:22;;;;;;;;;;;21.90;48.80;;;;;;3052099;19;4695;-23
2024/04/05 01:57:22;;;;;;;;;;;21.70;48.70;;;;;;3030987;19;4593;-24
2024/04/05 01:58:23;;;;;;;;;;;21.70;48.70;;;;;;3052301;19;4658;-26
2024/04/05 01:59:24;;;;;;;;;;;21.60;48.70;;;;;;3030547;19;4768;-24
2024/04/05 02:00:24;;;;;;;;;;;21.60;48.70;;;;;;3051815;19;4711;-23
2024/04/05 02:01:25;;;;;;;;;;;21.60;48.80;;;;;;3049572;19;4683;-25
2024/04/05 02:02:26;;;;;;;;;;;21.60;48.70;;;;;;3030310;19;4563;-23
2024/04/05 02:03:26;;;;;;;;;;;21.60;48.80;;;;;;3052229;19;4655;-23
2024/04/05 02:04:27;;;;;;;;;;;21.60;48.80;;;;;;3051403;19;4709;-25
2024/04/05 02:05:27;;;;;;;;;;;21.60;48.90;;;;;;3037734;19;4654;-24
2024/04/05 02:06:28;;;;;;;;;;;21.60;48.90;;;;;;3052215;19;4664;-25
2024/04/05 02:07:29;;;;;;;;;;;21.60;48.90;;;;;;3029576;19;4685;-23
2024/04/05 02:08:29;;;;;;;;;;;21.60;48.90;;;;;;3052145;19;4801;-23
2024/04/05 02:09:30;;;;;;;;;;;21.60;48.90;;;;;;3051766;19;4697;-24
2024/04/05 02:10:33;;;;;;;;;;;21.60;48.90;;;;;;3030987;19;4561;-23
2024/04/05 02:11:33;;;;;;;;;;;21.60;48.90;;;;;;3051213;19;4664;-25
2024/04/05 02:12:34;;;;;;;;;;;21.60;49.00;;;;;;3030409;19;4671;-23
2024/04/05 02:13:35;;;;;;;;;;;21.60;49.10;;;;;;3051992;19;4655;-23
2024/04/05 02:14:35;;;;;;;;;;;21.50;48.90;;;;;;3050438;19;5247;-25
2024/04/05 02:15:36;;;;;;;;;;;21.60;49.00;;;;;;3029001;19;4654;-25
2024/04/05 02:16:36;;;;;;;;;;;21.60;49.10;;;;;;3051947;19;5024;-24
2024/04/05 02:17:37;;;;;;;;;;;21.50;49.00;;;;;;3052365;19;4667;-23
2024/04/05 02:18:38;;;;;;;;;;;21.50;49.10;;;;;;3030483;19;4635;-24
2024/04/05 02:19:38;;;;;;;;;;;21.50;49.10;;;;;;3053010;19;4711;-24
2024/04/05 02:20:41;;;;;;;;;;;21.50;49.10;;;;;;3033607;19;4655;-26
2024/04/05 02:21:42;;;;;;;;;;;21.50;49.10;;;;;;3054996;19;4721;-23
2024/04/05 02:22:42;;;;;;;;;;;21.50;49.10;;;;;;3052319;19;4702;-24
2024/04/05 02:23:43;;;;;;;;;;;21.50;49.20;;;;;;3032266;19;4705;-24
2024/04/05 02:24:44;;;;;;;;;;;21.50;49.20;;;;;;3053320;19;4798;-24
2024/04/05 02:25:44;;;;;;;;;;;21.50;49.20;;;;;;3054566;19;4656;-23
2024/04/05 02:26:45;;;;;;;;;;;21.50;49.20;;;;;;3033255;19;4569;-26
2024/04/05 02:27:45;;;;;;;;;;;21.50;49.20;;;;;;3053625;19;4679;-26
2024/04/05 02:28:46;;;;;;;;;;;21.50;49.20;;;;;;3033414;19;4704;-23
2024/04/05 02:29:47;;;;;;;;;;;21.50;49.20;;;;;;3053635;19;4697;-24
2024/04/05 02:30:47;;;;;;;;;;;21.50;49.40;;;;;;3054933;19;4674;-23
2024/04/05 02:31:48;;;;;;;;;;;21.50;49.30;;;;;;3033176;19;4903;-26
2024/04/05 02:32:49;;;;;;;;;;;21.50;49.30;;;;;;3054955;19;4645;-23
2024/04/05 02:33:49;;;;;;;;;;;21.50;49.30;;;;;;3032895;19;4694;-23
2024/04/05 02:34:50;;;;;;;;;;;21.60;49.30;;;;;;3054076;19;4737;-23
2024/04/05 02:36:00;;;;;;;;;;;21.60;49.40;;;;;;3054399;19;4687;-23
2024/04/05 02:37:00;;;;;;;;;;;21.70;49.40;;;;;;3033767;19;4618;-23
2024/04/05 02:38:01;;;;;;;;;;;21.80;49.30;;;;;;3053141;19;4687;-23
2024/04/05 02:39:06;;;;;;;;;;;21.80;49.10;;;;;;3053565;19;4651;-24
2024/04/05 02:40:08;;;;;;;;;;;21.90;49.00;;;;;;3032874;19;4387;-25
2024/04/05 02:41:09;;;;;;;;;;;22.00;48.90;;;;;;3053822;19;4693;-31
2024/04/05 02:42:09;;;;;;;;;;;22.10;48.80;;;;;;3031980;19;4707;-34
2024/04/05 02:43:10;;;;;;;;;;;22.10;48.60;;;;;;3053647;19;4711;-33
2024/04/05 02:44:11;;;;;;;;;;;22.20;48.60;;;;;;3054011;19;4779;-30
2024/04/05 02:45:11;;;;;;;;;;;22.20;48.40;;;;;;3031617;19;4651;-30
2024/04/05 02:46:12;;;;;;;;;;;23.00;48.80;;;;;;3054101;19;4660;-34
2024/04/05 02:47:13;;;;;;;;;;;22.20;48.30;;;;;;3039825;19;5872;-30
2024/04/05 02:48:13;;;;;;;;;;;22.20;48.30;;;;;;3053062;19;1862;-32
2024/04/05 02:49:14;;;;;;;;;;;22.20;48.20;;;;;;3054056;19;4758;-32
2024/04/05 02:50:15;;;;;;;;;;;22.20;48.10;;;;;;3033178;19;5075;-32
2024/04/05 02:51:16;;;;;;;;;;;22.60;48.30;;;;;;3054731;19;4688;-31
2024/04/05 02:52:16;;;;;;;;;;;22.30;48.10;;;;;;3053557;19;4825;-32
2024/04/05 02:53:17;;;;;;;;;;;22.30;48.00;;;;;;3032044;19;5085;-34
2024/04/05 02:54:18;;;;;;;;;;;22.30;48.00;;;;;;3054703;19;4696;-32
2024/04/05 02:55:19;;;;;;;;;;;22.40;47.90;;;;;;3032540;19;4716;-33
2024/04/05 02:56:20;;;;;;;;;;;22.50;47.90;;;;;;3054191;19;4692;-32
2024/04/05 02:57:21;;;;;;;;;;;22.50;47.90;;;;;;3054563;19;4832;-32
2024/04/05 02:58:21;;;;;;;;;;;22.50;47.70;;;;;;3032004;19;4864;-29
2024/04/05 02:59:22;;;;;;;;;;;22.50;47.70;;;;;;3054264;19;4690;-33
2024/04/05 03:00:22;;;;;;;;;;;22.50;47.70;;;;;;3054852;19;4722;-33
2024/04/05 03:01:24;;;;;;;;;;;22.50;47.80;;;;;;3032822;19;4623;-32
2024/04/05 03:02:24;;;;;;;;;;;22.50;47.70;;;;;;3053711;19;4969;-30
2024/04/05 03:03:25;;;;;;;;;;;22.50;47.70;;;;;;3032524;19;4755;-33
2024/04/05 03:04:26;;;;;;;;;;;22.50;47.60;;;;;;3053123;19;4768;-35
2024/04/05 03:05:26;;;;;;;;;;;22.50;47.70;;;;;;3052460;19;4692;-34
2024/04/05 03:06:27;;;;;;;;;;;22.50;47.70;;;;;;3031899;19;4872;-33
2024/04/05 03:07:28;;;;;;;;;;;22.50;47.60;;;;;;3053320;19;4675;-32
2024/04/05 03:08:28;;;;;;;;;;;22.50;47.60;;;;;;3036096;19;4691;-32
2024/04/05 03:09:30;;;;;;;;;;;22.50;47.60;;;;;;3053857;19;4762;-29
2024/04/05 03:10:31;;;;;;;;;;;22.50;47.70;;;;;;3052922;19;4702;-31
2024/04/05 03:11:31;;;;;;;;;;;22.50;47.60;;;;;;3031633;19;4669;-33
2024/04/05 03:12:32;;;;;;;;;;;22.50;47.60;;;;;;3053973;19;4662;-30
2024/04/05 03:13:33;;;;;;;;;;;22.50;47.70;;;;;;3053862;19;4644;-33
2024/04/05 03:14:33;;;;;;;;;;;22.60;47.70;;;;;;3032328;19;4508;-34
2024/04/05 03:15:34;;;;;;;;;;;22.50;47.70;;;;;;3051170;19;4669;-30
2024/04/05 03:16:35;;;;;;;;;;;22.50;47.70;;;;;;3032549;19;4645;-31
2024/04/05 03:17:36;;;;;;;;;;;22.50;47.70;;;;;;3054046;19;4630;-32
2024/04/05 03:18:36;;;;;;;;;;;22.50;47.70;;;;;;3054120;19;4903;-31
2024/04/05 03:19:38;;;;;;;;;;;22.50;47.80;;;;;;3032500;19;4698;-34
2024/04/05 03:20:39;;;;;;;;;;;22.40;47.70;;;;;;3053646;19;4728;-33
2024/04/05 03:21:39;;;;;;;;;;;22.50;47.70;;;;;;3053948;19;4604;-32
2024/04/05 03:22:40;;;;;;;;;;;22.40;47.70;;;;;;3031470;19;4669;-34
2024/04/05 03:23:41;;;;;;;;;;;22.40;47.70;;;;;;3053548;19;4768;-31
2024/04/05 03:24:41;;;;;;;;;;;22.40;47.70;;;;;;3032330;19;4615;-31
2024/04/05 03:25:42;;;;;;;;;;;22.40;47.70;;;;;;3053842;19;4809;-33
2024/04/05 03:26:42;;;;;;;;;;;22.40;47.60;;;;;;3054219;19;4852;-34
2024/04/05 03:27:43;;;;;;;;;;;22.40;47.70;;;;;;3032155;19;4746;-32
2024/04/05 03:28:45;;;;;;;;;;;22.40;47.70;;;;;;3054117;19;4656;-31
2024/04/05 03:29:46;;;;;;;;;;;22.40;47.70;;;;;;3054059;19;4745;-32
2024/04/05 03:30:46;;;;;;;;;;;22.40;47.70;;;;;;3031691;19;4691;-32
2024/04/05 03:31:49;;;;;;;;;;;22.40;47.80;;;;;;3053825;19;4873;-30
2024/04/05 03:32:50;;;;;;;;;;;22.40;47.80;;;;;;3032493;19;4783;-34
2024/04/05 03:33:50;;;;;;;;;;;22.30;47.80;;;;;;3053274;19;4878;-32
2024/04/05 03:34:51;;;;;;;;;;;22.30;47.90;;;;;;3053387;19;4659;-33
2024/04/05 03:35:52;;;;;;;;;;;22.30;47.90;;;;;;3032334;19;4641;-32
2024/04/05 03:36:52;;;;;;;;;;;22.30;48.00;;;;;;3053220;19;5162;-32
2024/04/05 03:37:53;;;;;;;;;;;22.30;48.00;;;;;;3032739;19;4642;-32
2024/04/05 03:38:59;;;;;;;;;;;22.30;48.00;;;;;;3053995;19;4642;-33
2024/04/05 03:40:00;;;;;;;;;;;22.30;48.00;;;;;;3053882;19;4587;-32
2024/04/05 03:41:01;;;;;;;;;;;22.30;47.80;;;;;;3032391;19;4668;-32
2024/04/05 03:42:02;;;;;;;;;;;22.40;47.70;;;;;;3051534;19;4578;-30
2024/04/05 03:43:03;;;;;;;;;;;22.40;47.70;;;;;;3053382;19;4622;-31
2024/04/05 03:44:04;;;;;;;;;;;22.40;47.80;;;;;;3030528;19;4692;-30
2024/04/05 03:45:05;;;;;;;;;;;22.40;47.90;;;;;;3053104;19;4760;-32
2024/04/05 03:46:05;;;;;;;;;;;22.40;47.70;;;;;;3032361;19;4626;-31
2024/04/05 03:47:06;;;;;;;;;;;22.40;47.80;;;;;;3053686;19;4405;-31
2024/04/05 03:48:07;;;;;;;;;;;22.40;47.80;;;;;;3051882;19;4768;-30
2024/04/05 03:49:07;;;;;;;;;;;22.40;47.80;;;;;;3029704;19;4571;-31
2024/04/05 03:50:08;;;;;;;;;;;22.40;47.80;;;;;;3052921;19;4671;-29
2024/04/05 03:51:09;;;;;;;;;;;22.40;47.80;;;;;;3034794;19;4839;-29
2024/04/05 03:52:09;;;;;;;;;;;22.40;48.00;;;;;;3053770;19;4694;-31
2024/04/05 03:53:10;;;;;;;;;;;22.40;48.00;;;;;;3054212;19;4619;-31
2024/04/05 03:54:11;;;;;;;;;;;22.40;47.90;;;;;;3031498;19;4542;-29
2024/04/05 03:55:11;;;;;;;;;;;22.40;47.90;;;;;;3053600;19;4671;-30
2024/04/05 03:56:12;;;;;;;;;;;22.40;47.90;;;;;;3053437;19;4668;-32
2024/04/05 03:57:13;;;;;;;;;;;22.40;47.80;;;;;;3031740;19;4586;-34
2024/04/05 03:58:13;;;;;;;;;;;22.40;47.70;;;;;;3052933;19;4685;-29
2024/04/05 03:59:14;;;;;;;;;;;22.40;47.60;;;;;;3031832;19;4671;-32
2024/04/05 04:00:15;;;;;;;;;;;22.50;47.60;;;;;;3053496;19;4647;-35
2024/04/05 04:01:15;;;;;;;;;;;22.50;47.30;;;;;;3053854;19;4668;-23
2024/04/05 04:02:16;;;;;;;;;;;22.60;47.30;;;;;;3032199;19;4574;-24
2024/04/05 04:03:17;;;;;;;;;;;22.60;47.20;;;;;;3052580;19;4716;-23
2024/04/05 04:04:17;;;;;;;;;;;22.60;47.10;;;;;;3054018;19;4621;-23
2024/04/05 04:05:18;;;;;;;;;;;22.70;47.10;;;;;;3031599;19;4608;-24
2024/04/05 04:06:19;;;;;;;;;;;22.70;47.00;;;;;;3053655;19;4633;-23
2024/04/05 04:07:19;;;;;;;;;;;22.80;47.00;;;;;;3031910;19;4652;-25
2024/04/05 04:08:20;;;;;;;;;;;22.80;46.90;;;;;;3052282;19;4728;-24
2024/04/05 04:09:22;;;;;;;;;;;22.80;46.90;;;;;;3053431;19;4674;-26
2024/04/05 04:10:24;;;;;;;;;;;22.80;47.00;;;;;;3031894;19;4567;-25
2024/04/05 04:11:25;;;;;;;;;;;22.80;46.90;;;;;;3051500;19;4637;-24
2024/04/05 04:12:25;;;;;;;;;;;22.80;46.80;;;;;;3053872;19;4817;-24
2024/04/05 04:13:26;;;;;;;;;;;22.70;46.80;;;;;;3031510;19;4651;-24
2024/04/05 04:14:27;;;;;;;;;;;22.80;47.00;;;;;;3053814;19;4840;-24
2024/04/05 04:15:27;;;;;;;;;;;22.80;46.90;;;;;;3032032;19;4666;-23
2024/04/05 04:16:28;;;;;;;;;;;22.80;46.90;;;;;;3053921;19;4620;-23
2024/04/05 04:17:29;;;;;;;;;;;22.80;46.80;;;;;;3053949;19;4775;-24
2024/04/05 04:18:29;;;;;;;;;;;22.80;46.80;;;;;;3031731;19;4621;-26
2024/04/05 04:19:30;;;;;;;;;;;22.80;46.90;;;;;;3052938;19;4663;-23
2024/04/05 04:20:31;;;;;;;;;;;22.80;47.00;;;;;;3031718;19;4684;-24
2024/04/05 04:21:31;;;;;;;;;;;22.80;46.90;;;;;;3052918;19;4796;-23
2024/04/05 04:22:33;;;;;;;;;;;22.80;46.90;;;;;;3052575;19;4616;-24
2024/04/05 04:23:33;;;;;;;;;;;22.80;46.90;;;;;;3031722;19;4709;-23
2024/04/05 04:24:34;;;;;;;;;;;22.80;47.00;;;;;;3052500;19;4764;-23
2024/04/05 04:25:35;;;;;;;;;;;22.70;47.40;;;;;;3053185;19;4714;-23
2024/04/05 04:26:36;;;;;;;;;;;22.80;47.00;;;;;;3031599;19;4579;-24
2024/04/05 04:27:37;;;;;;;;;;;22.80;46.90;;;;;;3053003;19;4623;-26
2024/04/05 04:28:38;;;;;;;;;;;22.70;46.90;;;;;;3030656;19;4732;-23
2024/04/05 04:29:39;;;;;;;;;;;22.70;46.90;;;;;;3053195;19;5391;-24
2024/04/05 04:30:39;;;;;;;;;;;22.70;47.00;;;;;;3052405;19;4760;-24
2024/04/05 04:31:42;;;;;;;;;;;22.70;46.90;;;;;;3030629;19;4684;-24
2024/04/05 04:32:43;;;;;;;;;;;22.70;47.00;;;;;;3053086;19;4668;-27
2024/04/05 04:33:45;;;;;;;;;;;22.80;47.00;;;;;;3052512;19;4666;-24
2024/04/05 04:34:45;;;;;;;;;;;22.70;47.00;;;;;;3031346;19;5001;-22
2024/04/05 04:35:46;;;;;;;;;;;22.70;46.90;;;;;;3052931;19;4688;-24
2024/04/05 04:36:46;;;;;;;;;;;22.70;46.90;;;;;;3029950;19;4633;-23
2024/04/05 04:37:47;;;;;;;;;;;22.60;47.60;;;;;;3052642;19;4726;-24
2024/04/05 04:38:48;;;;;;;;;;;22.70;47.00;;;;;;3051888;19;4899;-23
2024/04/05 04:39:49;;;;;;;;;;;22.70;47.00;;;;;;3031113;19;4680;-26
2024/04/05 04:40:49;;;;;;;;;;;22.60;47.00;;;;;;3052838;19;4742;-25
2024/04/05 04:41:50;;;;;;;;;;;22.60;47.30;;;;;;3030689;19;4673;-24
2024/04/05 04:42:50;;;;;;;;;;;22.60;47.10;;;;;;3051013;19;4807;-25
2024/04/05 04:43:53;;;;;;;;;;;22.60;47.10;;;;;;3053043;19;4793;-24
2024/04/05 04:44:55;;;;;;;;;;;22.60;47.20;;;;;;3031685;19;4760;-24
2024/04/05 04:45:56;;;;;;;;;;;22.60;47.10;;;;;;3049609;19;4808;-24
2024/04/05 04:46:56;;;;;;;;;;;22.80;47.40;;;;;;3051566;19;4977;-25
2024/04/05 04:47:57;;;;;;;;;;;22.60;47.30;;;;;;3026641;19;5322;-25
2024/04/05 04:48:58;;;;;;;;;;;22.50;47.30;;;;;;3050677;19;4687;-26
2024/04/05 04:49:59;;;;;;;;;;;22.50;47.30;;;;;;3030360;19;4650;-24
2024/04/05 04:50:59;;;;;;;;;;;22.50;47.40;;;;;;3052536;19;4644;-24
2024/04/05 04:52:00;;;;;;;;;;;22.50;47.40;;;;;;3053157;19;4677;-23
2024/04/05 04:53:01;;;;;;;;;;;22.50;47.40;;;;;;3031478;19;4765;-23
2024/04/05 04:54:02;;;;;;;;;;;22.50;47.50;;;;;;3052188;19;4627;-25
2024/04/05 04:55:05;;;;;;;;;;;22.50;47.50;;;;;;3052674;19;4684;-28
2024/04/05 04:56:05;;;;;;;;;;;22.40;47.50;;;;;;3030050;19;4789;-23
2024/04/05 04:57:08;;;;;;;;;;;22.40;47.50;;;;;;3050976;19;20481;-24
2024/04/05 04:58:11;;;;;;;;;;;22.50;47.60;;;;;;3028540;19;4588;-24
2024/04/05 04:59:12;;;;;;;;;;;22.40;47.60;;;;;;3052082;19;1061;-25
2024/04/05 05:00:14;;;;;;;;;;;22.40;47.60;;;;;;3051907;19;4736;-23
2024/04/05 05:01:15;;;;;;;;;;;22.40;47.70;;;;;;3031012;19;4633;-24
2024/04/05 05:02:15;;;;;;;;;;;22.40;47.70;;;;;;3052375;19;4692;-23
2024/04/05 05:03:16;;;;;;;;;;;22.40;47.70;;;;;;3030342;19;4725;-23
2024/04/05 05:04:17;;;;;;;;;;;22.40;47.60;;;;;;3052305;19;4658;-25
2024/04/05 05:05:17;;;;;;;;;;;22.40;47.40;;;;;;3052688;19;4874;-24
2024/04/05 05:06:18;;;;;;;;;;;22.50;47.20;;;;;;3030559;19;4628;-24
2024/04/05 05:07:19;;;;;;;;;;;22.50;47.20;;;;;;3052569;19;4638;-24
2024/04/05 05:08:20;;;;;;;;;;;22.50;47.20;;;;;;3052495;19;4861;-23
2024/04/05 05:09:21;;;;;;;;;;;22.50;47.20;;;;;;3030956;19;4558;-24
2024/04/05 05:10:21;;;;;;;;;;;22.60;47.20;;;;;;3052462;19;4640;-23
2024/04/05 05:11:22;;;;;;;;;;;22.50;47.20;;;;;;3030220;19;4689;-24
2024/04/05 05:12:23;;;;;;;;;;;22.50;47.20;;;;;;3052776;19;4676;-24
2024/04/05 05:13:24;;;;;;;;;;;22.50;47.20;;;;;;3052841;19;4658;-24
2024/04/05 05:14:25;;;;;;;;;;;22.50;47.20;;;;;;3030996;19;4635;-25
2024/04/05 05:15:27;;;;;;;;;;;22.50;47.30;;;;;;3052209;19;4695;-23
2024/04/05 05:16:27;;;;;;;;;;;22.50;47.30;;;;;;3049201;19;4677;-24
2024/04/05 05:17:28;;;;;;;;;;;22.50;47.30;;;;;;3041024;19;4696;-23
2024/04/05 05:18:28;;;;;;;;;;;22.50;47.30;;;;;;3053154;19;4718;-25
2024/04/05 05:19:29;;;;;;;;;;;22.50;47.30;;;;;;3031368;19;4822;-23
2024/04/05 05:20:30;;;;;;;;;;;22.50;47.30;;;;;;3051683;19;4752;-24
2024/04/05 05:21:34;;;;;;;;;;;22.50;47.40;;;;;;3052805;19;4743;-23
2024/04/05 05:22:35;;;;;;;;;;;22.50;47.40;;;;;;3030179;19;4498;-25
2024/04/05 05:23:35;;;;;;;;;;;22.50;47.40;;;;;;3052994;19;4703;-24
2024/04/05 05:24:36;;;;;;;;;;;22.50;47.50;;;;;;3030779;19;4646;-23
2024/04/05 05:25:37;;;;;;;;;;;22.50;47.40;;;;;;3052617;19;4654;-27
2024/04/05 05:26:38;;;;;;;;;;;22.50;47.50;;;;;;3051870;19;4705;-23
2024/04/05 05:27:38;;;;;;;;;;;22.40;47.40;;;;;;3029766;19;4686;-25
2024/04/05 05:28:39;;;;;;;;;;;22.40;47.50;;;;;;3052976;19;4789;-24
2024/04/05 05:29:39;;;;;;;;;;;22.50;47.60;;;;;;3052050;19;4645;-23
2024/04/05 05:30:40;;;;;;;;;;;22.40;47.60;;;;;;3029438;19;4449;-26
2024/04/05 05:31:41;;;;;;;;;;;22.30;47.50;;;;;;3052011;19;4705;-25
2024/04/05 05:32:41;;;;;;;;;;;22.40;47.60;;;;;;3030495;19;4685;-24
2024/04/05 05:33:42;;;;;;;;;;;22.40;47.60;;;;;;3051237;19;4814;-23
2024/04/05 05:34:42;;;;;;;;;;;22.40;47.70;;;;;;3051501;19;4710;-23
2024/04/05 05:35:44;;;;;;;;;;;22.30;47.70;;;;;;3030753;19;4656;-26
2024/04/05 05:36:44;;;;;;;;;;;22.30;47.70;;;;;;3051082;19;4820;-25
2024/04/05 05:37:45;;;;;;;;;;;22.40;47.60;;;;;;3051561;19;4626;-25
2024/04/05 05:38:46;;;;;;;;;;;22.40;47.50;;;;;;3028624;19;4549;-23
2024/04/05 05:39:46;;;;;;;;;;;22.50;47.50;;;;;;3050488;19;4682;-24
2024/04/05 05:40:47;;;;;;;;;;;22.50;47.60;;;;;;3030530;19;4644;-24
2024/04/05 05:41:47;;;;;;;;;;;22.50;47.60;;;;;;3050188;19;4705;-23
2024/04/05 05:42:48;;;;;;;;;;;22.50;47.70;;;;;;3050977;19;4797;-27
2024/04/05 05:43:49;;;;;;;;;;;22.50;47.70;;;;;;3030116;19;4730;-25
2024/04/05 05:44:50;;;;;;;;;;;22.50;47.70;;;;;;3051650;19;4650;-24
2024/04/05 05:45:50;;;;;;;;;;;22.50;47.60;;;;;;3029120;19;4665;-24
2024/04/05 05:46:51;;;;;;;;;;;22.60;47.50;;;;;;3051128;19;4640;-27
2024/04/05 05:47:55;;;;;;;;;;;22.60;47.30;;;;;;3051257;19;4877;-23
2024/04/05 05:48:56;;;;;;;;;;;22.70;47.30;;;;;;3029253;19;4686;-24
2024/04/05 05:49:57;;;;;;;;;;;22.70;47.20;;;;;;3050965;19;5270;-23
2024/04/05 05:50:57;;;;;;;;;;;22.80;47.10;;;;;;3052463;19;4779;-24
2024/04/05 05:51:58;;;;;;;;;;;22.80;47.10;;;;;;3028138;19;4732;-25
2024/04/05 05:52:58;;;;;;;;;;;22.90;47.10;;;;;;3050476;19;4757;-23
2024/04/05 05:53:59;;;;;;;;;;;22.90;47.00;;;;;;3029263;19;4600;-24
2024/04/05 05:55:00;;;;;;;;;;;22.90;47.00;;;;;;3053980;19;4666;-24
2024/04/05 05:56:02;;;;;;;;;;;22.90;47.00;;;;;;3052940;19;4819;-26
2024/04/05 05:57:03;;;;;;;;;;;22.90;47.70;;;;;;3033057;19;4590;-24
2024/04/05 05:58:04;;;;;;;;;;;22.90;47.00;;;;;;3053335;19;4661;-24
2024/04/05 05:59:05;;;;;;;;;;;22.90;47.00;;;;;;3053531;19;5183;-23
2024/04/05 06:00:09;;;;;;;;;;;22.90;47.00;;;;;;3032120;19;4632;-24